createdAt,value
2019-06-27T00:01:41.735Z,68.22
2019-06-27T00:04:11.409Z,68.25
2019-06-27T00:06:42.248Z,68.09
2019-06-27T00:09:13.225Z,67.95
2019-06-27T00:11:42.850Z,67.83
2019-06-27T00:14:12.863Z,67.71
2019-06-27T00:16:42.568Z,67.93
2019-06-27T00:19:12.237Z,68.13
2019-06-27T00:21:41.869Z,68.13
2019-06-27T00:24:11.525Z,68.30
2019-06-27T00:26:56.205Z,68.57
2019-06-27T00:29:13.595Z,68.77
2019-06-27T00:31:43.222Z,68.96
2019-06-27T00:34:13.888Z,69.20
2019-06-27T00:36:43.633Z,69.32
2019-06-27T00:39:15.287Z,69.33
2019-06-27T00:41:44.915Z,69.42
2019-06-27T00:44:14.507Z,69.56
2019-06-27T00:46:44.169Z,69.73
2019-06-27T00:49:13.945Z,69.94
2019-06-27T00:51:45.309Z,69.83
2019-06-27T00:54:15.208Z,69.79
2019-06-27T00:56:44.931Z,69.77
2019-06-27T00:59:14.527Z,69.82
2019-06-27T01:01:57.411Z,70.56
2019-06-27T01:04:27.161Z,70.53
2019-06-27T01:06:56.896Z,70.46
2019-06-27T01:09:26.626Z,70.19
2019-06-27T01:11:56.249Z,69.88
2019-06-27T01:14:28.496Z,69.59
2019-06-27T01:16:58.119Z,69.76
2019-06-27T01:19:27.754Z,69.89
2019-06-27T01:21:58.505Z,70.21
2019-06-27T01:24:28.269Z,70.53
2019-06-27T01:26:59.047Z,70.66
2019-06-27T01:29:31.889Z,70.49
2019-06-27T01:32:04.735Z,70.75
2019-06-27T01:34:35.382Z,70.82
2019-06-27T01:37:07.407Z,70.90
2019-06-27T01:39:37.481Z,70.79
2019-06-27T01:42:08.424Z,70.71
2019-06-27T01:44:49.469Z,70.91
2019-06-27T01:47:23.145Z,71.31
2019-06-27T01:49:52.768Z,71.41
2019-06-27T01:52:24.500Z,71.48
2019-06-27T01:54:54.186Z,71.45
2019-06-27T01:57:23.884Z,71.56
2019-06-27T02:00:00.429Z,71.54
2019-06-27T02:02:30.145Z,71.64
2019-06-27T02:04:59.797Z,71.69
2019-06-27T02:07:29.813Z,72.01
2019-06-27T02:10:00.417Z,72.36
2019-06-27T02:12:30.057Z,72.43
2019-06-27T02:14:59.708Z,72.46
2019-06-27T02:17:29.348Z,72.36
2019-06-27T02:19:59.330Z,72.90
2019-06-27T02:22:29.088Z,72.89
2019-06-27T02:24:58.734Z,73.03
2019-06-27T02:27:42.401Z,73.07
2019-06-27T02:30:13.323Z,72.83
2019-06-27T02:32:43.138Z,72.79
2019-06-27T02:35:12.995Z,72.99
2019-06-27T02:37:42.638Z,72.83
2019-06-27T02:40:13.479Z,72.40
2019-06-27T02:42:46.153Z,72.35
2019-06-27T02:45:16.247Z,72.80
2019-06-27T02:47:46.882Z,73.08
2019-06-27T02:50:16.540Z,73.23
2019-06-27T02:52:46.160Z,73.32
2019-06-27T02:55:15.846Z,73.65
2019-06-27T02:57:45.972Z,73.62
2019-06-27T03:00:16.196Z,73.73
2019-06-27T03:02:45.827Z,73.60
2019-06-27T03:05:16.996Z,73.39
2019-06-27T03:07:46.662Z,73.41
2019-06-27T03:10:18.577Z,73.44
2019-06-27T03:12:48.345Z,73.29
2019-06-27T03:15:19.149Z,73.47
2019-06-27T03:17:48.802Z,73.38
2019-06-27T03:20:18.896Z,73.50
2019-06-27T03:22:48.504Z,73.19
2019-06-27T03:25:18.109Z,73.03
2019-06-27T03:27:50.803Z,72.94
2019-06-27T03:30:21.474Z,72.91
2019-06-27T03:32:54.231Z,72.57
2019-06-27T03:35:24.018Z,72.62
2019-06-27T03:37:54.750Z,72.74
2019-06-27T03:40:24.433Z,72.64
2019-06-27T03:42:54.205Z,72.52
2019-06-27T03:45:23.972Z,72.75
2019-06-27T03:47:53.646Z,72.84
2019-06-27T03:50:30.372Z,72.80
2019-06-27T03:53:02.098Z,72.71
2019-06-27T03:55:31.861Z,72.95
2019-06-27T03:58:02.503Z,73.07
2019-06-27T04:00:34.426Z,73.08
2019-06-27T04:03:05.269Z,72.99
2019-06-27T04:05:35.007Z,72.87
2019-06-27T04:08:04.693Z,72.85
2019-06-27T04:10:34.695Z,73.08
2019-06-27T04:13:05.544Z,72.88
2019-06-27T04:15:35.640Z,72.69
2019-06-27T04:18:05.592Z,72.58
2019-06-27T04:20:35.272Z,72.55
2019-06-27T04:23:05.001Z,72.47
2019-06-27T04:25:34.673Z,72.18
2019-06-27T04:28:05.411Z,72.42
2019-06-27T04:30:35.101Z,72.71
2019-06-27T04:33:04.898Z,72.78
2019-06-27T04:35:35.485Z,72.70
2019-06-27T04:38:05.253Z,72.29
2019-06-27T04:40:35.097Z,71.71
2019-06-27T04:43:06.066Z,71.46
2019-06-27T04:45:36.026Z,71.36
2019-06-27T04:48:05.765Z,71.23
2019-06-27T04:50:35.518Z,71.13
2019-06-27T04:53:08.393Z,70.99
2019-06-27T04:55:40.026Z,71.00
2019-06-27T04:58:09.757Z,70.86
2019-06-27T05:00:52.130Z,70.83
2019-06-27T05:03:21.792Z,70.69
2019-06-27T05:05:51.527Z,70.44
2019-06-27T05:08:21.238Z,70.39
2019-06-27T05:10:50.898Z,70.54
2019-06-27T05:13:20.513Z,70.21
2019-06-27T05:15:50.204Z,70.25
2019-06-27T05:18:21.545Z,70.11
2019-06-27T05:20:51.193Z,69.77
2019-06-27T05:23:36.572Z,69.62
2019-06-27T05:25:57.479Z,69.23
2019-06-27T05:28:27.244Z,69.16
2019-06-27T05:30:57.010Z,69.13
2019-06-27T05:33:26.882Z,69.19
2019-06-27T05:36:04.402Z,69.15
2019-06-27T05:38:34.130Z,69.07
2019-06-27T05:41:03.948Z,68.72
2019-06-27T05:43:33.604Z,68.46
2019-06-27T05:46:03.298Z,68.19
2019-06-27T05:48:32.931Z,67.95
2019-06-27T05:51:02.586Z,67.76
2019-06-27T05:53:32.228Z,68.04
2019-06-27T05:56:01.888Z,67.49
2019-06-27T05:58:31.585Z,66.71
2019-06-27T06:01:01.261Z,66.01
2019-06-27T06:03:31.138Z,65.71
2019-06-27T06:06:00.847Z,65.21
2019-06-27T06:08:31.415Z,65.26
2019-06-27T06:11:01.045Z,65.15
2019-06-27T06:13:30.819Z,64.93
2019-06-27T06:16:01.302Z,64.83
2019-06-27T06:18:32.375Z,64.40
2019-06-27T06:21:02.100Z,63.82
2019-06-27T06:23:31.891Z,62.82
2019-06-27T06:26:01.492Z,62.27
2019-06-27T06:28:31.119Z,62.55
2019-06-27T06:31:01.858Z,62.92
2019-06-27T06:33:31.500Z,63.07
2019-06-27T06:36:01.253Z,63.41
2019-06-27T06:38:30.983Z,63.55
2019-06-27T06:41:00.699Z,64.57
2019-06-27T06:43:31.326Z,64.62
2019-06-27T06:46:00.986Z,64.10
2019-06-27T06:48:31.463Z,63.21
2019-06-27T06:51:01.180Z,62.72
2019-06-27T06:53:30.914Z,62.66
2019-06-27T06:56:00.555Z,62.44
2019-06-27T06:58:30.174Z,61.97
2019-06-27T07:01:02.095Z,61.66
2019-06-27T07:03:31.149Z,61.80
2019-06-27T07:06:00.914Z,61.88
2019-06-27T07:08:30.675Z,61.06
2019-06-27T07:11:00.400Z,59.96
2019-06-27T07:13:30.197Z,58.73
2019-06-27T07:15:59.837Z,58.86
2019-06-27T07:18:29.546Z,58.09
2019-06-27T07:20:59.315Z,56.90
2019-06-27T07:23:30.654Z,56.61
2019-06-27T07:26:00.357Z,55.59
2019-06-27T07:28:30.077Z,54.90
2019-06-27T07:30:59.815Z,53.95
2019-06-27T07:33:29.455Z,53.73
2019-06-27T07:36:00.383Z,52.83
2019-06-27T07:38:31.025Z,52.68
2019-06-27T07:41:00.726Z,52.48
2019-06-27T07:43:30.445Z,53.19
2019-06-27T07:46:00.259Z,53.69
2019-06-27T07:48:30.089Z,53.60
2019-06-27T07:51:00.082Z,54.07
2019-06-27T07:53:29.901Z,53.94
2019-06-27T07:55:59.672Z,53.39
2019-06-27T07:58:29.536Z,52.33
2019-06-27T08:00:59.256Z,51.78
2019-06-27T08:03:28.991Z,51.13
2019-06-27T08:05:58.705Z,50.66
2019-06-27T08:08:28.329Z,49.19
2019-06-27T08:10:57.972Z,48.35
2019-06-27T08:13:27.768Z,47.97
2019-06-27T08:15:57.716Z,47.04
2019-06-27T08:18:28.491Z,45.60
2019-06-27T08:20:58.296Z,46.08
2019-06-27T08:23:40.912Z,46.65
2019-06-27T08:26:00.309Z,46.17
2019-06-27T08:28:30.164Z,45.43
2019-06-27T08:31:00.079Z,44.46
2019-06-27T08:33:29.835Z,43.25
2019-06-27T08:36:00.925Z,44.15
2019-06-27T08:38:30.679Z,44.83
2019-06-27T08:41:01.031Z,45.67
2019-06-27T08:43:31.572Z,46.11
2019-06-27T08:46:01.216Z,46.73
2019-06-27T08:48:30.881Z,46.85
2019-06-27T08:51:01.182Z,46.88
2019-06-27T08:53:31.005Z,46.08
2019-06-27T08:56:00.704Z,45.74
2019-06-27T08:58:30.437Z,45.63
2019-06-27T09:01:00.114Z,44.73
2019-06-27T09:03:29.844Z,44.22
2019-06-27T09:06:05.896Z,45.03
2019-06-27T09:08:35.607Z,45.41
2019-06-27T09:11:05.385Z,45.87
2019-06-27T09:13:35.105Z,46.54
2019-06-27T09:16:04.987Z,46.05
2019-06-27T09:18:37.592Z,45.00
2019-06-27T09:21:07.816Z,44.98
2019-06-27T09:23:37.859Z,44.59
2019-06-27T09:26:08.162Z,44.38
2019-06-27T09:28:38.602Z,43.61
2019-06-27T09:31:12.289Z,44.32
2019-06-27T09:33:42.105Z,44.54
2019-06-27T09:36:12.051Z,45.02
2019-06-27T09:38:42.590Z,44.82
2019-06-27T09:41:12.502Z,44.36
2019-06-27T09:43:42.386Z,42.45
2019-06-27T09:46:12.580Z,41.98
2019-06-27T09:48:42.299Z,41.77
2019-06-27T09:51:11.937Z,43.31
2019-06-27T09:53:42.167Z,44.20
2019-06-27T09:56:11.960Z,45.03
2019-06-27T09:58:41.676Z,45.20
2019-06-27T10:01:11.590Z,45.24
2019-06-27T10:03:41.385Z,44.60
2019-06-27T10:06:11.129Z,43.49
2019-06-27T10:08:40.904Z,43.41
2019-06-27T10:11:11.638Z,43.99
2019-06-27T10:13:41.278Z,44.08
2019-06-27T10:16:11.011Z,43.97
2019-06-27T10:18:40.660Z,43.21
2019-06-27T10:21:10.381Z,44.91
2019-06-27T10:23:40.027Z,45.33
2019-06-27T10:26:11.377Z,45.80
2019-06-27T10:28:41.091Z,45.52
2019-06-27T10:31:10.755Z,44.89
2019-06-27T10:33:40.426Z,44.68
2019-06-27T10:36:10.391Z,44.61
2019-06-27T10:38:40.150Z,45.46
2019-06-27T10:41:09.800Z,44.96
2019-06-27T10:43:39.533Z,43.87
2019-06-27T10:46:10.238Z,44.05
2019-06-27T10:48:40.817Z,43.96
2019-06-27T10:51:10.447Z,42.95
2019-06-27T10:53:40.704Z,42.91
2019-06-27T10:56:14.413Z,42.20
2019-06-27T10:58:44.060Z,42.79
2019-06-27T11:01:13.736Z,42.59
2019-06-27T11:03:43.454Z,42.80
2019-06-27T11:06:13.148Z,42.10
2019-06-27T11:08:42.827Z,42.41
2019-06-27T11:11:12.454Z,42.50
2019-06-27T11:13:54.847Z,41.39
2019-06-27T11:16:13.802Z,41.17
2019-06-27T11:18:43.487Z,41.03
2019-06-27T11:21:14.092Z,40.23
2019-06-27T11:23:43.869Z,40.00
2019-06-27T11:26:16.095Z,40.26
2019-06-27T11:28:45.430Z,39.62
2019-06-27T11:31:15.066Z,39.43
2019-06-27T11:33:45.654Z,39.80
2019-06-27T11:36:16.935Z,38.84
2019-06-27T11:38:46.621Z,38.99
2019-06-27T11:41:16.221Z,39.55
2019-06-27T11:43:46.004Z,39.14
2019-06-27T11:46:15.746Z,39.24
2019-06-27T11:48:46.000Z,38.84
2019-06-27T11:51:15.713Z,38.43
2019-06-27T11:53:46.391Z,38.20
2019-06-27T11:56:16.337Z,37.80
2019-06-27T11:58:46.764Z,37.83
2019-06-27T12:01:16.958Z,38.06
2019-06-27T12:03:49.748Z,39.71
2019-06-27T12:06:18.741Z,39.94
2019-06-27T12:08:49.255Z,40.18
2019-06-27T12:11:19.690Z,40.62
2019-06-27T12:13:49.770Z,40.47
2019-06-27T12:16:19.823Z,40.00
2019-06-27T12:18:49.707Z,39.80
2019-06-27T12:21:19.987Z,39.74
2019-06-27T12:23:54.133Z,39.76
2019-06-27T12:26:24.006Z,40.42
2019-06-27T12:28:53.926Z,41.24
2019-06-27T12:31:24.071Z,41.53
2019-06-27T12:34:06.270Z,40.97
2019-06-27T12:36:26.051Z,40.64
2019-06-27T12:38:57.135Z,40.89
2019-06-27T12:41:27.573Z,40.67
2019-06-27T12:44:07.770Z,40.88
2019-06-27T12:46:37.840Z,40.02
2019-06-27T12:49:08.297Z,40.26
2019-06-27T12:51:38.424Z,40.14
2019-06-27T12:54:13.861Z,40.88
2019-06-27T12:56:44.061Z,40.82
2019-06-27T12:59:14.202Z,40.39
2019-06-27T13:01:47.608Z,40.60
2019-06-27T13:04:23.315Z,40.36
2019-06-27T13:06:49.327Z,40.00
2019-06-27T13:09:19.703Z,40.00
2019-06-27T13:11:51.734Z,40.41
2019-06-27T13:14:27.812Z,40.61
2019-06-27T13:16:57.620Z,39.87
2019-06-27T13:19:44.662Z,40.17
2019-06-27T13:22:14.402Z,39.84
2019-06-27T13:24:44.533Z,39.71
2019-06-27T13:27:14.919Z,39.50
2019-06-27T13:29:45.658Z,39.71
2019-06-27T13:32:15.953Z,40.38
2019-06-27T13:34:46.333Z,40.08
2019-06-27T13:37:16.101Z,40.17
2019-06-27T13:39:46.722Z,40.79
2019-06-27T13:42:16.594Z,41.52
2019-06-27T13:44:46.888Z,40.96
2019-06-27T13:47:20.088Z,40.82
2019-06-27T13:49:48.083Z,40.63
2019-06-27T13:52:19.108Z,40.73
2019-06-27T13:54:49.480Z,40.50
2019-06-27T13:57:19.386Z,40.41
2019-06-27T13:59:49.403Z,40.17
2019-06-27T14:02:20.118Z,40.25
2019-06-27T14:04:57.142Z,40.98
2019-06-27T14:07:22.609Z,40.19
2019-06-27T14:09:57.083Z,39.66
2019-06-27T14:12:24.954Z,39.25
2019-06-27T14:14:59.618Z,39.58
2019-06-27T14:17:26.763Z,39.60
2019-06-27T14:20:18.363Z,39.78
2019-06-27T14:22:48.485Z,40.62
2019-06-27T14:25:18.316Z,39.92
2019-06-27T14:27:48.082Z,39.83
2019-06-27T14:30:19.805Z,39.67
2019-06-27T14:32:53.157Z,38.75
2019-06-27T14:35:21.245Z,39.15
2019-06-27T14:37:51.117Z,39.49
2019-06-27T14:40:22.516Z,40.02
2019-06-27T14:42:53.216Z,39.75
2019-06-27T14:45:25.317Z,39.14
2019-06-27T14:47:56.742Z,40.20
2019-06-27T14:50:27.283Z,39.19
2019-06-27T14:52:57.674Z,39.74
2019-06-27T14:55:28.183Z,39.88
2019-06-27T14:57:58.541Z,39.85
2019-06-27T15:00:28.968Z,40.38
2019-06-27T15:02:58.841Z,40.25
2019-06-27T15:05:32.943Z,39.83
2019-06-27T15:08:01.309Z,39.89
2019-06-27T15:10:31.706Z,40.28
2019-06-27T15:13:02.014Z,40.66
2019-06-27T15:15:33.303Z,40.58
2019-06-27T15:18:03.589Z,40.33
2019-06-27T15:20:33.290Z,40.02
2019-06-27T15:23:03.498Z,39.84
2019-06-27T15:25:34.130Z,39.95
2019-06-27T15:28:04.408Z,39.66
2019-06-27T15:30:34.089Z,39.43
2019-06-27T15:33:03.905Z,39.80
2019-06-27T15:35:50.905Z,39.64
2019-06-27T15:38:05.829Z,39.73
2019-06-27T15:40:35.556Z,39.45
2019-06-27T15:43:05.305Z,40.76
2019-06-27T15:45:35.021Z,40.25
2019-06-27T15:48:04.931Z,40.29
2019-06-27T15:50:35.737Z,39.89
2019-06-27T15:53:06.111Z,39.64
2019-06-27T15:55:36.536Z,39.43
2019-06-27T15:58:07.206Z,39.57
2019-06-27T16:00:39.346Z,39.39
2019-06-27T16:03:08.517Z,38.92
2019-06-27T16:05:38.368Z,38.67
2019-06-27T16:08:08.387Z,38.55
2019-06-27T16:10:38.572Z,38.36
2019-06-27T16:13:08.465Z,38.79
2019-06-27T16:15:38.714Z,38.73
2019-06-27T16:18:09.208Z,38.66
2019-06-27T16:20:39.622Z,38.27
2019-06-27T16:23:09.368Z,38.80
2019-06-27T16:25:39.784Z,38.94
2019-06-27T16:28:10.573Z,38.53
2019-06-27T16:30:40.422Z,38.33
2019-06-27T16:33:10.177Z,38.28
2019-06-27T16:35:40.533Z,38.39
2019-06-27T16:38:11.105Z,39.13
2019-06-27T16:40:40.873Z,38.63
2019-06-27T16:43:12.353Z,39.28
2019-06-27T16:45:42.699Z,39.33
2019-06-27T16:48:13.176Z,39.36
2019-06-27T16:50:43.504Z,39.53
2019-06-27T16:53:14.301Z,40.01
2019-06-27T16:55:46.596Z,40.19
2019-06-27T16:58:16.832Z,40.35
2019-06-27T17:00:46.791Z,40.10
2019-06-27T17:03:16.473Z,39.97
2019-06-27T17:05:47.017Z,39.36
2019-06-27T17:08:16.951Z,39.31
2019-06-27T17:10:47.288Z,39.84
2019-06-27T17:13:17.599Z,39.87
2019-06-27T17:15:47.902Z,40.06
2019-06-27T17:18:17.794Z,40.23
2019-06-27T17:20:47.476Z,40.68
2019-06-27T17:23:17.797Z,41.07
2019-06-27T17:25:47.614Z,41.43
2019-06-27T17:28:17.276Z,41.68
2019-06-27T17:30:47.162Z,41.72
2019-06-27T17:33:17.507Z,41.94
2019-06-27T17:35:47.898Z,41.70
2019-06-27T17:38:18.358Z,41.37
2019-06-27T17:40:48.197Z,41.71
2019-06-27T17:43:18.522Z,42.63
2019-06-27T17:45:48.860Z,42.82
2019-06-27T17:48:18.687Z,42.77
2019-06-27T17:50:48.434Z,43.10
2019-06-27T17:53:18.666Z,43.05
2019-06-27T17:55:48.996Z,42.87
2019-06-27T17:58:18.728Z,43.09
2019-06-27T18:00:49.414Z,43.43
2019-06-27T18:03:19.747Z,43.33
2019-06-27T18:05:50.365Z,43.61
2019-06-27T18:08:20.149Z,43.69
2019-06-27T18:10:49.870Z,43.64
2019-06-27T18:13:19.585Z,43.76
2019-06-27T18:15:49.232Z,43.95
2019-06-27T18:18:19.570Z,44.28
2019-06-27T18:20:49.778Z,44.38
2019-06-27T18:23:19.455Z,45.87
2019-06-27T18:25:49.262Z,46.60
2019-06-27T18:28:19.614Z,46.65
2019-06-27T18:30:49.315Z,46.71
2019-06-27T18:33:19.007Z,46.62
2019-06-27T18:35:48.802Z,46.49
2019-06-27T18:38:19.126Z,46.61
2019-06-27T18:40:49.431Z,46.73
2019-06-27T18:43:19.112Z,46.58
2019-06-27T18:45:48.960Z,46.99
2019-06-27T18:48:18.714Z,46.84
2019-06-27T18:50:49.456Z,47.31
2019-06-27T18:53:19.222Z,47.39
2019-06-27T18:55:49.544Z,47.86
2019-06-27T18:58:19.223Z,48.64
2019-06-27T19:00:49.677Z,49.09
2019-06-27T19:03:20.231Z,49.92
2019-06-27T19:05:54.663Z,50.41
2019-06-27T19:08:54.102Z,50.06
2019-06-27T19:11:24.274Z,50.51
2019-06-27T19:13:58.583Z,50.73
2019-06-27T19:16:31.729Z,50.99
2019-06-27T19:19:11.500Z,51.38
2019-06-27T19:21:42.771Z,51.27
2019-06-27T19:24:15.213Z,51.31
2019-06-27T19:26:46.842Z,51.36
2019-06-27T19:29:16.598Z,51.32
2019-06-27T19:31:46.476Z,50.85
2019-06-27T19:34:16.463Z,50.53
2019-06-27T19:36:46.187Z,50.29
2019-06-27T19:39:16.098Z,50.37
2019-06-27T19:41:46.073Z,50.38
2019-06-27T19:44:15.886Z,50.48
2019-06-27T19:46:45.600Z,50.73
2019-06-27T19:49:15.422Z,51.06
2019-06-27T19:51:45.339Z,51.35
2019-06-27T19:54:15.262Z,51.39
2019-06-27T19:56:45.053Z,51.45
2019-06-27T19:59:14.813Z,51.62
2019-06-27T20:01:44.733Z,51.75
2019-06-27T20:04:14.428Z,52.07
2019-06-27T20:06:44.205Z,52.46
2019-06-27T20:09:13.871Z,52.45
2019-06-27T20:11:43.645Z,52.48
2019-06-27T20:14:13.671Z,52.54
2019-06-27T20:16:43.399Z,52.83
2019-06-27T20:19:13.496Z,52.93
2019-06-27T20:21:43.110Z,53.04
2019-06-27T20:24:12.822Z,53.14
2019-06-27T20:26:42.589Z,53.23
2019-06-27T20:29:12.234Z,53.34
2019-06-27T20:31:41.941Z,53.38
2019-06-27T20:34:11.554Z,53.45
2019-06-27T20:36:41.227Z,53.35
2019-06-27T20:39:10.884Z,53.35
2019-06-27T20:41:40.513Z,53.33
2019-06-27T20:44:10.224Z,53.37
2019-06-27T20:46:39.956Z,53.54
2019-06-27T20:49:09.661Z,53.65
2019-06-27T20:51:39.345Z,53.77
2019-06-27T20:54:12.098Z,53.84
2019-06-27T20:56:40.520Z,53.92
2019-06-27T20:59:10.559Z,54.21
2019-06-27T21:01:40.333Z,54.44
2019-06-27T21:04:09.993Z,54.58
2019-06-27T21:06:39.718Z,54.66
2019-06-27T21:09:09.539Z,54.89
2019-06-27T21:11:39.148Z,55.08
2019-06-27T21:14:09.412Z,55.42
2019-06-27T21:16:39.196Z,55.66
2019-06-27T21:19:08.947Z,55.77
2019-06-27T21:21:38.655Z,55.92
2019-06-27T21:24:08.418Z,56.29
2019-06-27T21:26:38.678Z,56.58
2019-06-27T21:29:08.447Z,56.93
2019-06-27T21:31:38.177Z,57.29
2019-06-27T21:34:07.886Z,57.95
2019-06-27T21:36:37.654Z,58.12
2019-06-27T21:39:08.217Z,58.12
2019-06-27T21:41:37.986Z,58.47
2019-06-27T21:44:07.786Z,58.54
2019-06-27T21:46:37.507Z,58.50
2019-06-27T21:49:11.228Z,58.43
2019-06-27T21:51:39.328Z,58.25
2019-06-27T21:54:09.043Z,58.25
2019-06-27T21:56:38.785Z,58.27
2019-06-27T21:59:08.461Z,58.26
2019-06-27T22:01:38.368Z,58.71
2019-06-27T22:04:08.176Z,59.09
2019-06-27T22:06:37.844Z,59.26
2019-06-27T22:09:23.439Z,59.33
2019-06-27T22:11:40.327Z,59.65
2019-06-27T22:14:10.879Z,59.64
2019-06-27T22:16:40.657Z,59.58
2019-06-27T22:19:10.442Z,59.58
2019-06-27T22:21:40.209Z,59.82
2019-06-27T22:24:09.863Z,59.97
2019-06-27T22:26:39.669Z,59.86
2019-06-27T22:29:09.360Z,60.08
2019-06-27T22:31:39.083Z,60.44
2019-06-27T22:34:08.870Z,60.66
2019-06-27T22:36:38.791Z,60.92
2019-06-27T22:39:39.602Z,61.04
2019-06-27T22:42:15.375Z,61.18
2019-06-27T22:45:02.935Z,61.37
2019-06-27T22:47:50.641Z,61.60
2019-06-27T22:50:35.956Z,61.63
2019-06-27T22:53:07.581Z,61.75
2019-06-27T22:55:37.479Z,61.96
2019-06-27T22:58:07.375Z,62.25
2019-06-27T23:00:38.304Z,62.55
2019-06-27T23:03:08.115Z,62.78
2019-06-27T23:05:38.004Z,62.98
2019-06-27T23:08:07.939Z,63.03
2019-06-27T23:10:37.780Z,63.25
2019-06-27T23:13:07.582Z,63.30
2019-06-27T23:15:38.004Z,63.40
2019-06-27T23:18:07.674Z,63.49
2019-06-27T23:20:37.489Z,63.53
2019-06-27T23:23:07.090Z,63.53
2019-06-27T23:25:37.402Z,63.40
2019-06-27T23:28:07.473Z,63.53
2019-06-27T23:30:37.251Z,63.83
2019-06-27T23:33:06.919Z,63.81
2019-06-27T23:35:36.756Z,64.18
2019-06-27T23:38:06.577Z,64.40
2019-06-27T23:40:36.300Z,64.54
2019-06-27T23:43:06.099Z,64.54
2019-06-27T23:45:35.708Z,64.47
2019-06-27T23:48:05.581Z,64.59
2019-06-27T23:50:35.349Z,64.40
2019-06-27T23:53:05.210Z,64.42
2019-06-27T23:55:34.915Z,64.64
2019-06-27T23:58:04.760Z,64.70
